Latest Coastal Weather Observations for Warrnambool

IDV60701

Issued at 2:41 pm EST Saturday 27 August 2016 (issued every 10 minutes, with the page automatically refreshed every 10 minutes)

About coastal observations | Map of coastal stations | Coastal observations for VIC | Marine services | Other Formats
Station Details ID: 090186 Name: WARRNAMBOOL AIRPORT NDB Lat: -38.29 Lon: 142.45 Height: 70.8 m
Data from the previous 72 hours. | See also: Recent months at Warrnambool
Date/Time
EST
Temp
°C
Wind Pressure Rain since
9am
mm
Weather Cloud Vis
km
Sea
Height
m
Swell
Dir  Spd
kts
Gust
kts
hPa Trend Height
m
Period
s
Dir
27/02:30pm 12.3 NW 18 23 1017.6 - 0.0 - Partly cloudy 10 - - - -
27/02:00pm 12.5 NW 17 24 1018.3 - 0.0 - Partly cloudy 10 - - - -
27/01:30pm 13.0 NNW 18 24 1018.5 - 0.0 - Partly cloudy 10 - - - -
27/01:00pm 13.4 NW 18 26 1018.6 - 0.0 - Partly cloudy 10 - - - -
27/12:30pm 12.9 NNW 19 23 1018.9 - 0.0 - Partly cloudy 10 - - - -
27/12:00pm 12.9 NNW 17 23 1019.3 - 0.0 - Partly cloudy 10 - - - -
27/11:30am 12.5 NNW 19 25 1019.7 - 0.0 - Partly cloudy 10 - - - -
27/11:00am 11.4 NNW 15 20 1020.0 - 0.0 - Cloudy 10 - - - -
27/10:30am 11.2 NNW 16 22 1020.2 - 0.0 - Cloudy 10 - - - -
27/10:00am 10.7 NNW 12 16 1020.6 - 0.0 - Cloudy 10 - - - -
27/09:30am 9.8 NNW 11 15 1020.9 - 0.0 - Cloudy 10 - - - -
27/09:00am 9.8 NNW 12 14 1020.9 - 0.2 - Cloudy 10 - - - -
27/08:30am 9.0 NNW 14 19 1020.8 - 0.2 - Cloudy 10 - - - -
27/08:00am 8.7 N 13 16 1020.3 - 0.2 - - 10 - - - -
27/07:30am 7.2 N 12 14 1020.1 - 0.2 - - 10 - - - -
27/07:00am 6.9 N 11 14 1020.2 - 0.2 - Partly cloudy 10 - - - -
27/06:30am 6.9 N 11 14 1020.4 - 0.2 - Partly cloudy 10 - - - -
27/06:00am 7.9 NNW 11 15 1020.5 - 0.2 - Cloudy 10 - - - -
27/05:30am 8.0 NNW 11 14 1020.6 - 0.2 - Cloudy 10 - - - -
27/05:00am 7.7 N 9 11 1020.5 - 0.2 - Cloudy 10 - - - -
27/04:30am 7.5 N 9 12 1020.3 - 0.2 - Cloudy 10 - - - -
27/04:00am 6.9 NNW 10 13 1020.3 - 0.2 - Partly cloudy 10 - - - -
27/03:30am 6.8 NNW 11 15 1020.0 - 0.2 - - 10 - - - -
27/03:00am 6.5 N 11 15 1019.9 - 0.2 - - 10 - - - -
27/02:30am 6.8 NNW 12 17 1020.2 - 0.2 - - 10 - - - -
27/02:00am 6.8 NNW 11 15 1020.7 - 0.2 - - 10 - - - -
27/01:30am 7.0 NNW 10 12 1020.8 - 0.2 - Partly cloudy 10 - - - -
27/01:00am 7.6 NNW 10 13 1020.9 - 0.2 - Cloudy 10 - - - -
27/12:30am 7.4 NNW 10 12 1021.3 - 0.2 - Cloudy 10 - - - -
27/12:00am 6.6 NNW 9 11 1021.3 - 0.2 - - 10 - - - -
 
Date/Time
EST
Temp
°C
Wind Pressure Rain since
9am
mm
Weather Cloud Vis
km
Sea
Height
m
Swell
Dir  Spd
kts
Gust
kts
hPa Trend Height
m
Period
s
Dir
26/11:30pm 7.1 NNW 9 11 1021.5 - 0.2 - Partly cloudy 10 - - - -
26/11:00pm 7.3 NNW 9 11 1021.6 - 0.2 - Partly cloudy 10 - - - -
26/10:30pm 7.8 NNW 9 10 1021.6 - 0.2 - Cloudy 10 - - - -
26/10:00pm 8.5 NW 10 12 1021.9 - 0.2 - Partly cloudy 10 - - - -
26/09:30pm 8.6 NW 9 12 1021.8 - 0.2 - Partly cloudy 10 - - - -
26/09:00pm 8.6 NW 10 13 1021.8 - 0.2 - Cloudy 10 - - - -
26/08:30pm 8.5 NNW 9 11 1021.6 - 0.2 - Cloudy 10 - - - -
26/08:00pm 8.1 NNW 8 9 1021.5 - 0.2 - Partly cloudy 10 - - - -
26/07:30pm 7.7 NW 9 10 1021.5 - 0.2 - Partly cloudy 10 - - - -
26/07:00pm 8.4 NW 6 9 1021.4 - 0.2 - Partly cloudy 10 - - - -
26/06:30pm 9.1 NW 7 9 1021.2 - 0.2 - Partly cloudy 10 - - - -
26/06:00pm 9.3 W 10 13 1021.0 - 0.2 Showers Cloudy 10 - - - -
26/05:30pm 10.1 W 13 16 1021.0 - 0.0 - Partly cloudy 10 - - - -
26/05:00pm 11.1 W 12 15 1020.8 - 0.0 - Partly cloudy 10 - - - -
26/04:30pm 11.3 W 12 15 1020.5 - 0.0 - Partly cloudy 10 - - - -
26/04:00pm 11.9 NW 10 14 1020.1 - 0.0 - Partly cloudy 10 - - - -
26/03:30pm 12.3 NW 14 20 1020.2 - 0.0 - Partly cloudy 10 - - - -
26/03:00pm 11.8 NW 13 16 1020.3 - 0.0 - Cloudy 10 - - - -
26/02:30pm 12.9 WNW 12 19 1020.4 - 0.0 - Partly cloudy 10 - - - -
26/02:00pm 12.2 WNW 9 14 1020.7 - 0.0 - Partly cloudy 10 - - - -
26/01:30pm 11.8 W 11 15 1021.1 - 0.0 - Partly cloudy 10 - - - -
26/01:00pm 10.8 W 14 19 1021.3 - 0.0 - Partly cloudy 10 - - - -
26/12:30pm 11.5 WNW 10 15 1021.4 - 0.0 - Partly cloudy 10 - - - -
26/12:00pm 11.7 WNW 11 15 1021.7 - 0.0 - Cloudy 10 - - - -
26/11:30am 11.3 NW 16 21 1022.0 - 0.0 - Cloudy 10 - - - -
26/11:00am 11.0 NW 14 19 1022.2 - 0.0 - Partly cloudy 10 - - - -
26/10:30am 10.2 NW 9 14 1022.4 - 0.0 - Partly cloudy 10 - - - -
26/10:00am 10.1 NW 10 12 1022.3 - 0.0 - Cloudy 10 - - - -
26/09:30am 9.2 NW 10 13 1022.3 - 0.0 - Cloudy 10 - - - -
26/09:00am 8.4 NW 10 13 1022.3 - 1.2 - Mostly cloudy 10 - - - -
26/08:30am 7.9 NW 9 11 1022.2 - 1.2 - Partly cloudy 10 - - - -
26/08:00am 7.3 NW 9 11 1022.0 - 1.2 - Partly cloudy 10 - - - -
26/07:30am 6.9 NW 7 9 1021.8 - 1.2 - Partly cloudy 10 - - - -
26/07:00am 6.8 NW 7 9 1021.6 - 1.2 - Cloudy 10 - - - -
26/06:30am 6.8 NW 9 11 1021.2 - 1.2 - Cloudy 10 - - - -
26/06:00am 6.7 NW 9 10 1021.1 - 1.2 - Cloudy 10 - - - -
26/05:30am 6.6 NW 7 9 1021.0 - 1.2 - Partly cloudy 10 - - - -
26/05:00am 6.5 NW 9 11 1020.7 - 1.2 - Partly cloudy 10 - - - -
26/04:30am 6.1 NW 8 11 1020.4 - 1.2 - Partly cloudy 10 - - - -
26/04:00am 5.7 NW 9 10 1020.1 - 1.2 - Cloudy 10 - - - -
26/03:30am 4.6 NW 9 11 1020.1 - 1.2 - - 10 - - - -
26/03:00am 4.8 NW 9 11 1020.2 - 1.2 - - 10 - - - -
26/02:30am 5.3 NW 7 8 1020.3 - 1.2 - Cloudy 10 - - - -
26/02:00am 5.3 NW 8 9 1020.6 - 1.2 - Partly cloudy 10 - - - -
26/01:30am 5.0 NW 7 9 1020.5 - 1.2 - - 10 - - - -
26/01:00am 5.7 NW 8 11 1020.5 - 1.2 - - 10 - - - -
26/12:30am 5.8 NW 8 10 1020.5 - 1.2 - Partly cloudy 10 - - - -
26/12:00am 6.3 NW 7 10 1020.6 - 1.2 - Mostly clear 10 - - - -
 
Date/Time
EST
Temp
°C
Wind Pressure Rain since
9am
mm
Weather Cloud Vis
km
Sea
Height
m
Swell
Dir  Spd
kts
Gust
kts
hPa Trend Height
m
Period
s
Dir
25/11:30pm 6.5 NW 6 8 1020.5 - 1.2 - Partly cloudy 10 - - - -
25/11:00pm 6.5 NW 7 9 1020.5 - 1.2 - Partly cloudy 10 - - - -
25/10:30pm 6.9 WNW 6 7 1020.6 - 1.2 - Partly cloudy 10 - - - -
25/10:00pm 6.5 WNW 6 8 1020.6 - 1.2 - Partly cloudy 10 - - - -
25/09:30pm 7.1 WNW 5 8 1020.6 - 1.2 - Partly cloudy 10 - - - -
25/09:00pm 8.4 W 5 8 1020.4 - 1.2 Drizzle Cloudy 10 - - - -
25/08:30pm 7.7 WSW 4 5 1020.2 - 1.2 - Partly cloudy 10 - - - -
25/08:00pm 8.2 WSW 7 8 1020.0 - 1.2 - Partly cloudy 10 - - - -
25/07:30pm 8.6 W 8 12 1019.7 - 1.2 - Partly cloudy 7 - - - -
25/07:00pm 8.3 WNW 5 6 1019.3 - 0.6 - Partly cloudy 10 - - - -
25/06:30pm 8.8 SW 6 8 1019.2 - 0.6 - Partly cloudy 10 - - - -
25/06:00pm 8.3 WSW 5 6 1018.8 - 0.4 - Mostly cloudy 10 - - - -
25/05:30pm 9.4 SSW 6 8 1018.5 - 0.4 - Partly cloudy 10 - - - -
25/05:00pm 10.4 SW 5 7 1018.2 - 0.4 - Partly cloudy 10 - - - -
25/04:30pm 10.3 SSW 10 11 1018.0 - 0.4 - Partly cloudy 10 - - - -
25/04:00pm 11.4 SSW 11 15 1017.9 - 0.4 - Partly cloudy 10 - - - -
25/03:30pm 11.5 S 12 16 1017.8 - 0.4 - Partly cloudy 10 - - - -
25/03:00pm 12.4 SSW 9 12 1017.6 - 0.4 - Partly cloudy 10 - - - -
25/02:30pm 11.9 SW 11 15 1017.4 - 0.4 - Partly cloudy 10 - - - -
25/02:00pm 11.1 WSW 10 14 1017.4 - 0.4 - Partly cloudy 10 - - - -
25/01:30pm 11.5 SSW 12 16 1017.4 - 0.4 - Partly cloudy 10 - - - -
25/01:00pm 11.7 SSW 13 16 1017.4 - 0.4 - Partly cloudy 10 - - - -
25/12:30pm 12.3 SSW 12 16 1017.4 - 0.4 - Partly cloudy 10 - - - -
25/12:00pm 12.1 SSW 12 17 1017.4 - 0.4 - Partly cloudy 10 - - - -
25/11:30am 11.1 SSW 12 16 1017.5 - 0.4 - Partly cloudy 10 - - - -
25/11:00am 10.6 SW 11 13 1017.5 - 0.4 - Partly cloudy 10 - - - -
25/10:30am 10.3 SSW 17 21 1017.3 - 0.4 - Partly cloudy 10 - - - -
25/10:00am 10.8 SSW 12 15 1017.0 - 0.4 - Partly cloudy 10 - - - -
25/09:30am 10.3 WSW 7 10 1016.8 - 0.4 - Partly cloudy 10 - - - -
25/09:00am 8.9 SW 7 10 1016.7 - 7.8 Rain Cloudy 10 - - - -
25/08:30am 8.7 SW 7 9 1016.6 - 7.8 - Partly cloudy 10 - - - -
25/08:00am 7.4 SW 6 8 1016.4 - 7.8 - Partly cloudy 10 - - - -
25/07:30am 6.7 WNW 5 7 1015.9 - 7.8 - Partly cloudy 10 - - - -
25/07:00am 6.4 SW 5 6 1015.6 - 7.8 - Partly cloudy 10 - - - -
25/06:30am 6.0 WSW 7 8 1015.2 - 7.4 - Partly cloudy 10 - - - -
25/06:28am 5.9 WSW 7 11 1015.2 - 7.4 - Partly cloudy 10 - - - -
25/06:13am 5.8 WSW 15 27 1015.2 - 7.0 - Partly cloudy 5 - - - -
25/06:11am 5.8 WSW 14 27 1015.2 - 7.0 - Partly cloudy 5 - - - -
25/06:09am 5.4 WSW 12 27 1015.4 - 6.6 - Partly cloudy 10 - - - -
25/06:00am 7.0 WSW 8 11 1014.9 - 5.0 Showers Cloudy 10 - - - -
25/05:30am 7.3 WSW 11 17 1014.7 - 5.0 - Partly cloudy 10 - - - -
25/05:00am 6.8 W 7 8 1014.4 - 5.0 - Partly cloudy 10 - - - -
25/04:30am 6.5 WSW 5 6 1014.2 - 5.0 - Partly cloudy 10 - - - -
25/04:00am 6.3 WNW 7 10 1014.3 - 5.0 - Partly cloudy 10 - - - -
25/03:30am 6.4 NW 7 9 1014.3 - 5.0 - Partly cloudy 10 - - - -
25/03:00am 7.0 WSW 7 9 1014.3 - 5.0 Rain Cloudy 10 - - - -
25/02:30am 7.4 WSW 8 10 1014.4 - 4.8 - Partly cloudy 10 - - - -
25/02:00am 6.6 SW 6 7 1014.7 - 4.6 - Partly cloudy 10 - - - -
25/01:30am 6.5 WNW 8 12 1015.0 - 4.4 - Partly cloudy 10 - - - -
25/01:00am 6.2 WNW 7 9 1015.0 - 4.4 - Partly cloudy 10 - - - -
25/12:30am 7.1 W 9 12 1015.1 - 4.4 - Partly cloudy 10 - - - -
25/12:12am 7.2 W 8 10 1015.0 - 4.4 - Partly cloudy 10 - - - -
25/12:00am 6.6 W 10 15 1015.1 - 4.2 Showers Cloudy 4 - - - -
 
Date/Time
EST
Temp
°C
Wind Pressure Rain since
9am
mm
Weather Cloud Vis
km
Sea
Height
m
Swell
Dir  Spd
kts
Gust
kts
hPa Trend Height
m
Period
s
Dir
24/11:53pm 6.4 W 9 14 1015.4 - 3.8 - Partly cloudy 5 - - - -
24/11:30pm 6.8 WNW 6 10 1015.2 - 0.8 - Partly cloudy 10 - - - -
24/11:00pm 6.7 W 7 10 1015.6 - 0.4 - Partly cloudy 10 - - - -
24/10:30pm 6.6 WNW 7 8 1015.5 - 0.4 - Partly cloudy 10 - - - -
24/10:00pm 5.9 W 5 6 1015.7 - 0.4 - Partly cloudy 10 - - - -
24/09:30pm 6.5 W 5 6 1015.9 - 0.4 - Partly cloudy 10 - - - -
24/09:00pm 6.1 WSW 5 5 1016.0 - 0.4 - Cloudy 10 - - - -
24/08:30pm 6.2 SW 7 9 1016.1 - 0.4 - Partly cloudy 10 - - - -
24/08:00pm 6.6 WSW 10 13 1016.1 - 0.4 - Partly cloudy 8 - - - -
24/07:30pm 6.5 SW 5 5 1016.1 - 0.0 - Partly cloudy 10 - - - -
24/07:00pm 5.8 WSW 5 6 1015.9 - 0.0 - Partly cloudy 10 - - - -
24/06:30pm 6.4 SW 6 8 1015.8 - 0.0 - Partly cloudy 10 - - - -
24/06:00pm 7.7 SSW 10 14 1015.8 - 0.0 Rain Cloudy 10 - - - -
24/05:30pm 8.2 SSW 7 9 1015.6 - 0.0 - - 10 - - - -
24/05:00pm 10.1 SSW 10 14 1015.4 - 0.0 - Partly cloudy 10 - - - -
24/04:30pm 10.4 SSW 10 14 1015.4 - 0.0 - Cloudy 10 - - - -
24/04:00pm 10.8 SSW 11 14 1015.4 - 0.0 - Partly cloudy 10 - - - -
24/03:30pm 11.1 S 11 13 1015.4 - 0.0 - Partly cloudy 10 - - - -
24/03:00pm 11.2 SSW 12 16 1015.3 - 0.0 Rain Cloudy 10 - - - -

Other Formats:

Comma delimited format used in spreadsheet applications
http://www.bom.gov.au/fwo/IDV60701/IDV60701.94837.axf

JavaScript Object Notation format (JSON) in row-major order
http://www.bom.gov.au/fwo/IDV60701/IDV60701.94837.json